sensor_id;sensor_type;location;lat;lon;timestamp;P1;P2;P0
44933;PMS3003;30667;43.614;1.442;2024-01-11T00:02:16;51.25;42.25;27.50
44933;PMS3003;30667;43.614;1.442;2024-01-11T00:04:42;40.80;38.40;26.80
44933;PMS3003;30667;43.614;1.442;2024-01-11T00:07:09;48.60;44.80;27.00
44933;PMS3003;30667;43.614;1.442;2024-01-11T00:09:38;56.00;46.50;29.50
44933;PMS3003;30667;43.614;1.442;2024-01-11T00:12:07;47.20;44.00;28.80
44933;PMS3003;30667;43.614;1.442;2024-01-11T00:14:32;44.00;38.25;26.50
44933;PMS3003;30667;43.614;1.442;2024-01-11T00:16:58;49.00;44.25;27.50
44933;PMS3003;30667;43.614;1.442;2024-01-11T00:19:23;54.25;45.00;27.00
44933;PMS3003;30667;43.614;1.442;2024-01-11T00:21:49;51.75;44.50;28.25
44933;PMS3003;30667;43.614;1.442;2024-01-11T00:24:14;52.00;43.75;28.25
44933;PMS3003;30667;43.614;1.442;2024-01-11T00:26:39;52.75;42.50;26.50
44933;PMS3003;30667;43.614;1.442;2024-01-11T00:29:06;46.80;44.20;26.40
44933;PMS3003;30667;43.614;1.442;2024-01-11T00:31:32;45.00;40.75;25.00
44933;PMS3003;30667;43.614;1.442;2024-01-11T00:33:57;44.00;40.50;25.00
44933;PMS3003;30667;43.614;1.442;2024-01-11T00:36:23;45.25;39.50;23.75
44933;PMS3003;30667;43.614;1.442;2024-01-11T00:38:48;44.50;38.75;24.00
44933;PMS3003;30667;43.614;1.442;2024-01-11T00:41:14;45.00;39.00;24.25
44933;PMS3003;30667;43.614;1.442;2024-01-11T00:43:39;45.00;40.25;24.25
44933;PMS3003;30667;43.614;1.442;2024-01-11T00:46:05;43.25;37.75;24.00
44933;PMS3003;30667;43.614;1.442;2024-01-11T00:48:30;44.00;39.75;24.00
44933;PMS3003;30667;43.614;1.442;2024-01-11T00:50:56;50.00;39.75;24.25
44933;PMS3003;30667;43.614;1.442;2024-01-11T00:53:21;45.00;38.50;22.00
44933;PMS3003;30667;43.614;1.442;2024-01-11T00:55:46;41.00;33.00;21.00
44933;PMS3003;30667;43.614;1.442;2024-01-11T00:58:12;41.50;35.00;21.25
44933;PMS3003;30667;43.614;1.442;2024-01-11T01:00:37;45.75;38.75;22.25
44933;PMS3003;30667;43.614;1.442;2024-01-11T01:03:03;46.50;39.00;22.25
44933;PMS3003;30667;43.614;1.442;2024-01-11T01:05:28;33.50;30.50;19.00
44933;PMS3003;30667;43.614;1.442;2024-01-11T01:07:54;36.00;31.00;19.00
44933;PMS3003;30667;43.614;1.442;2024-01-11T01:10:19;34.25;30.75;17.75
44933;PMS3003;30667;43.614;1.442;2024-01-11T01:12:44;37.50;31.25;21.00
44933;PMS3003;30667;43.614;1.442;2024-01-11T01:15:10;39.00;31.25;18.00
44933;PMS3003;30667;43.614;1.442;2024-01-11T01:17:35;37.75;29.75;18.25
44933;PMS3003;30667;43.614;1.442;2024-01-11T01:20:01;40.50;33.25;20.50
44933;PMS3003;30667;43.614;1.442;2024-01-11T01:22:26;40.50;33.00;19.50
44933;PMS3003;30667;43.614;1.442;2024-01-11T01:24:51;43.25;36.00;20.75
44933;PMS3003;30667;43.614;1.442;2024-01-11T01:27:17;40.50;34.75;20.00
44933;PMS3003;30667;43.614;1.442;2024-01-11T01:29:42;41.50;37.25;20.75
44933;PMS3003;30667;43.614;1.442;2024-01-11T01:32:07;36.00;32.00;19.00
44933;PMS3003;30667;43.614;1.442;2024-01-11T01:34:33;41.75;36.00;21.75
44933;PMS3003;30667;43.614;1.442;2024-01-11T01:36:58;42.75;35.50;21.50
44933;PMS3003;30667;43.614;1.442;2024-01-11T01:39:24;41.25;35.00;19.25
44933;PMS3003;30667;43.614;1.442;2024-01-11T01:41:49;44.00;35.50;20.50
44933;PMS3003;30667;43.614;1.442;2024-01-11T01:44:15;39.25;34.50;19.00
44933;PMS3003;30667;43.614;1.442;2024-01-11T01:46:40;45.00;36.75;20.75
44933;PMS3003;30667;43.614;1.442;2024-01-11T01:49:05;39.75;33.75;21.75
44933;PMS3003;30667;43.614;1.442;2024-01-11T01:51:31;37.40;34.80;20.80
44933;PMS3003;30667;43.614;1.442;2024-01-11T01:53:58;41.80;37.60;22.00
44933;PMS3003;30667;43.614;1.442;2024-01-11T01:56:26;41.00;34.60;19.40
44933;PMS3003;30667;43.614;1.442;2024-01-11T01:58:53;41.75;33.00;20.00
44933;PMS3003;30667;43.614;1.442;2024-01-11T02:01:19;37.20;32.60;20.20
44933;PMS3003;30667;43.614;1.442;2024-01-11T02:03:46;42.60;34.40;19.40
44933;PMS3003;30667;43.614;1.442;2024-01-11T02:06:15;34.40;31.00;19.40
44933;PMS3003;30667;43.614;1.442;2024-01-11T02:08:42;38.25;34.00;20.25
44933;PMS3003;30667;43.614;1.442;2024-01-11T02:11:08;37.80;33.40;20.80
44933;PMS3003;30667;43.614;1.442;2024-01-11T02:13:35;36.20;33.00;20.20
44933;PMS3003;30667;43.614;1.442;2024-01-11T02:16:02;41.40;37.60;21.00
44933;PMS3003;30667;43.614;1.442;2024-01-11T02:18:27;37.25;32.00;19.00
44933;PMS3003;30667;43.614;1.442;2024-01-11T02:20:52;44.00;34.25;21.00
44933;PMS3003;30667;43.614;1.442;2024-01-11T02:23:19;34.00;30.25;18.75
44933;PMS3003;30667;43.614;1.442;2024-01-11T02:25:49;42.20;35.80;19.20
44933;PMS3003;30667;43.614;1.442;2024-01-11T02:28:14;40.00;33.75;20.00
44933;PMS3003;30667;43.614;1.442;2024-01-11T02:30:40;34.25;32.00;19.50
44933;PMS3003;30667;43.614;1.442;2024-01-11T02:33:05;39.25;34.75;18.00
44933;PMS3003;30667;43.614;1.442;2024-01-11T02:35:31;39.75;33.25;19.00
44933;PMS3003;30667;43.614;1.442;2024-01-11T02:37:57;38.20;33.80;18.80
44933;PMS3003;30667;43.614;1.442;2024-01-11T02:40:25;36.80;29.80;17.60
44933;PMS3003;30667;43.614;1.442;2024-01-11T02:42:51;36.75;32.50;18.25
44933;PMS3003;30667;43.614;1.442;2024-01-11T02:45:16;41.25;33.25;17.75
44933;PMS3003;30667;43.614;1.442;2024-01-11T02:47:43;35.40;32.60;17.00
44933;PMS3003;30667;43.614;1.442;2024-01-11T02:50:09;33.00;30.00;17.00
44933;PMS3003;30667;43.614;1.442;2024-01-11T02:52:36;38.20;32.00;19.60
44933;PMS3003;30667;43.614;1.442;2024-01-11T02:55:02;33.75;29.75;18.50
44933;PMS3003;30667;43.614;1.442;2024-01-11T02:57:27;32.75;29.25;19.00
44933;PMS3003;30667;43.614;1.442;2024-01-11T02:59:52;34.75;30.75;18.25
44933;PMS3003;30667;43.614;1.442;2024-01-11T03:02:18;34.25;30.00;18.00
44933;PMS3003;30667;43.614;1.442;2024-01-11T03:04:43;37.75;29.50;18.00
44933;PMS3003;30667;43.614;1.442;2024-01-11T03:07:08;35.75;31.25;18.75
44933;PMS3003;30667;43.614;1.442;2024-01-11T03:09:34;46.75;36.25;21.75
44933;PMS3003;30667;43.614;1.442;2024-01-11T03:11:59;44.00;38.75;25.00
44933;PMS3003;30667;43.614;1.442;2024-01-11T03:14:25;39.00;33.75;20.75
44933;PMS3003;30667;43.614;1.442;2024-01-11T03:16:50;43.00;33.25;20.25
44933;PMS3003;30667;43.614;1.442;2024-01-11T03:19:16;46.50;36.00;21.25
44933;PMS3003;30667;43.614;1.442;2024-01-11T03:21:44;37.50;31.75;20.50
44933;PMS3003;30667;43.614;1.442;2024-01-11T03:24:10;45.40;37.20;21.00
44933;PMS3003;30667;43.614;1.442;2024-01-11T03:26:35;47.00;37.00;21.50
44933;PMS3003;30667;43.614;1.442;2024-01-11T03:29:01;47.50;39.00;23.75
44933;PMS3003;30667;43.614;1.442;2024-01-11T03:31:26;44.75;35.00;20.00
44933;PMS3003;30667;43.614;1.442;2024-01-11T03:33:51;41.00;36.00;21.50
44933;PMS3003;30667;43.614;1.442;2024-01-11T03:36:17;39.75;35.00;20.00
44933;PMS3003;30667;43.614;1.442;2024-01-11T03:38:42;44.00;37.00;23.00
44933;PMS3003;30667;43.614;1.442;2024-01-11T03:41:08;40.00;33.00;21.00
44933;PMS3003;30667;43.614;1.442;2024-01-11T03:43:37;38.80;32.60;20.80
44933;PMS3003;30667;43.614;1.442;2024-01-11T03:46:03;38.75;35.25;23.00
44933;PMS3003;30667;43.614;1.442;2024-01-11T03:48:28;43.20;36.60;23.00
44933;PMS3003;30667;43.614;1.442;2024-01-11T03:50:54;41.50;35.00;20.25
44933;PMS3003;30667;43.614;1.442;2024-01-11T03:53:19;44.75;40.50;21.00
44933;PMS3003;30667;43.614;1.442;2024-01-11T03:55:45;43.00;35.25;21.50
44933;PMS3003;30667;43.614;1.442;2024-01-11T03:58:10;40.75;35.00;21.00
44933;PMS3003;30667;43.614;1.442;2024-01-11T04:00:36;37.50;33.50;21.75
44933;PMS3003;30667;43.614;1.442;2024-01-11T04:03:01;38.50;33.75;20.00
44933;PMS3003;30667;43.614;1.442;2024-01-11T04:05:27;42.75;33.00;19.50
44933;PMS3003;30667;43.614;1.442;2024-01-11T04:07:52;34.75;32.25;20.50
44933;PMS3003;30667;43.614;1.442;2024-01-11T04:10:18;41.25;37.00;21.25
44933;PMS3003;30667;43.614;1.442;2024-01-11T04:12:43;36.50;29.50;18.50
44933;PMS3003;30667;43.614;1.442;2024-01-11T04:15:11;40.50;37.50;22.75
44933;PMS3003;30667;43.614;1.442;2024-01-11T04:17:38;34.20;32.40;20.60
44933;PMS3003;30667;43.614;1.442;2024-01-11T04:20:03;41.80;34.40;21.00
44933;PMS3003;30667;43.614;1.442;2024-01-11T04:22:29;33.20;30.80;20.40
44933;PMS3003;30667;43.614;1.442;2024-01-11T04:24:55;41.25;35.75;20.75
44933;PMS3003;30667;43.614;1.442;2024-01-11T04:27:20;36.50;32.00;19.50
44933;PMS3003;30667;43.614;1.442;2024-01-11T04:29:45;36.50;32.00;20.25
44933;PMS3003;30667;43.614;1.442;2024-01-11T04:32:11;35.00;30.50;20.75
44933;PMS3003;30667;43.614;1.442;2024-01-11T04:34:36;41.75;35.00;20.50
44933;PMS3003;30667;43.614;1.442;2024-01-11T04:37:02;39.25;33.25;20.25
44933;PMS3003;30667;43.614;1.442;2024-01-11T04:39:27;35.50;29.75;18.00
44933;PMS3003;30667;43.614;1.442;2024-01-11T04:41:52;37.25;31.75;20.00
44933;PMS3003;30667;43.614;1.442;2024-01-11T04:44:18;33.25;29.50;18.25
44933;PMS3003;30667;43.614;1.442;2024-01-11T04:46:43;38.00;27.25;17.00
44933;PMS3003;30667;43.614;1.442;2024-01-11T04:49:08;34.75;28.50;17.00
44933;PMS3003;30667;43.614;1.442;2024-01-11T04:51:34;34.75;31.00;17.00
44933;PMS3003;30667;43.614;1.442;2024-01-11T04:53:59;36.75;28.75;18.00
44933;PMS3003;30667;43.614;1.442;2024-01-11T04:56:25;37.20;29.00;15.80
44933;PMS3003;30667;43.614;1.442;2024-01-11T04:58:51;29.00;27.00;18.00
44933;PMS3003;30667;43.614;1.442;2024-01-11T05:01:17;36.50;31.50;18.00
44933;PMS3003;30667;43.614;1.442;2024-01-11T05:03:46;35.40;32.00;18.20
44933;PMS3003;30667;43.614;1.442;2024-01-11T05:06:15;29.40;27.00;17.60
44933;PMS3003;30667;43.614;1.442;2024-01-11T05:08:44;34.40;26.40;16.40
44933;PMS3003;30667;43.614;1.442;2024-01-11T05:11:21;35.40;29.60;18.00
44933;PMS3003;30667;43.614;1.442;2024-01-11T05:13:49;34.80;28.00;18.00
44933;PMS3003;30667;43.614;1.442;2024-01-11T05:16:18;28.60;25.80;16.60
44933;PMS3003;30667;43.614;1.442;2024-01-11T05:18:45;34.20;27.40;15.00
44933;PMS3003;30667;43.614;1.442;2024-01-11T05:21:10;34.50;27.25;17.00
44933;PMS3003;30667;43.614;1.442;2024-01-11T05:23:35;32.00;26.50;17.00
44933;PMS3003;30667;43.614;1.442;2024-01-11T05:26:01;32.25;30.00;17.75
44933;PMS3003;30667;43.614;1.442;2024-01-11T05:28:27;32.60;28.00;15.00
44933;PMS3003;30667;43.614;1.442;2024-01-11T05:30:52;28.50;24.00;14.25
44933;PMS3003;30667;43.614;1.442;2024-01-11T05:33:18;30.00;26.00;15.00
44933;PMS3003;30667;43.614;1.442;2024-01-11T05:35:43;30.00;26.75;15.00
44933;PMS3003;30667;43.614;1.442;2024-01-11T05:38:08;31.00;25.00;14.00
44933;PMS3003;30667;43.614;1.442;2024-01-11T05:40:34;26.25;25.00;15.75
44933;PMS3003;30667;43.614;1.442;2024-01-11T05:42:59;29.25;27.00;15.00
44933;PMS3003;30667;43.614;1.442;2024-01-11T05:45:24;29.75;26.50;15.00
44933;PMS3003;30667;43.614;1.442;2024-01-11T05:47:50;32.00;28.00;17.00
44933;PMS3003;30667;43.614;1.442;2024-01-11T05:50:15;30.00;26.25;16.25
44933;PMS3003;30667;43.614;1.442;2024-01-11T05:52:40;30.50;25.75;15.00
44933;PMS3003;30667;43.614;1.442;2024-01-11T05:55:06;31.20;24.40;15.00
44933;PMS3003;30667;43.614;1.442;2024-01-11T05:57:32;30.25;23.75;14.75
44933;PMS3003;30667;43.614;1.442;2024-01-11T05:59:57;28.75;28.25;16.25
44933;PMS3003;30667;43.614;1.442;2024-01-11T06:02:22;29.25;26.25;15.00
44933;PMS3003;30667;43.614;1.442;2024-01-11T06:04:48;32.25;29.75;16.25
44933;PMS3003;30667;43.614;1.442;2024-01-11T06:07:14;36.40;28.20;15.80
44933;PMS3003;30667;43.614;1.442;2024-01-11T06:09:40;32.75;27.00;16.00
44933;PMS3003;30667;43.614;1.442;2024-01-11T06:12:05;29.25;27.25;17.25
44933;PMS3003;30667;43.614;1.442;2024-01-11T06:14:30;27.50;24.00;15.00
44933;PMS3003;30667;43.614;1.442;2024-01-11T06:16:56;30.75;26.50;15.00
44933;PMS3003;30667;43.614;1.442;2024-01-11T06:19:22;29.00;27.25;15.00
44933;PMS3003;30667;43.614;1.442;2024-01-11T06:21:47;28.60;26.60;15.00
44933;PMS3003;30667;43.614;1.442;2024-01-11T06:24:13;32.00;26.75;14.50
44933;PMS3003;30667;43.614;1.442;2024-01-11T06:26:38;26.50;25.25;16.25
44933;PMS3003;30667;43.614;1.442;2024-01-11T06:29:04;31.00;28.75;16.50
44933;PMS3003;30667;43.614;1.442;2024-01-11T06:31:29;26.50;25.50;13.75
44933;PMS3003;30667;43.614;1.442;2024-01-11T06:33:54;36.25;29.00;16.00
44933;PMS3003;30667;43.614;1.442;2024-01-11T06:36:21;27.50;24.50;15.00
44933;PMS3003;30667;43.614;1.442;2024-01-11T06:38:46;30.40;28.60;18.60
44933;PMS3003;30667;43.614;1.442;2024-01-11T06:41:12;38.50;30.00;17.25
44933;PMS3003;30667;43.614;1.442;2024-01-11T06:43:37;31.25;27.25;16.00
44933;PMS3003;30667;43.614;1.442;2024-01-11T06:46:03;29.75;25.75;15.00
44933;PMS3003;30667;43.614;1.442;2024-01-11T06:48:30;36.20;31.00;16.00
44933;PMS3003;30667;43.614;1.442;2024-01-11T06:50:56;30.40;26.60;16.80
44933;PMS3003;30667;43.614;1.442;2024-01-11T06:53:21;30.00;23.75;15.00
44933;PMS3003;30667;43.614;1.442;2024-01-11T06:55:47;35.25;30.00;16.00
44933;PMS3003;30667;43.614;1.442;2024-01-11T06:58:12;29.25;26.75;15.50
44933;PMS3003;30667;43.614;1.442;2024-01-11T07:00:38;41.00;28.75;18.00
44933;PMS3003;30667;43.614;1.442;2024-01-11T07:03:08;32.60;26.00;15.00
44933;PMS3003;30667;43.614;1.442;2024-01-11T07:05:34;32.60;28.80;16.00
44933;PMS3003;30667;43.614;1.442;2024-01-11T07:08:00;35.00;29.25;17.75
44933;PMS3003;30667;43.614;1.442;2024-01-11T07:10:25;30.50;27.75;17.25
44933;PMS3003;30667;43.614;1.442;2024-01-11T07:12:50;29.25;26.50;15.75
44933;PMS3003;30667;43.614;1.442;2024-01-11T07:15:16;27.75;24.25;15.00
44933;PMS3003;30667;43.614;1.442;2024-01-11T07:17:42;28.20;26.60;15.40
44933;PMS3003;30667;43.614;1.442;2024-01-11T07:20:07;31.75;28.25;17.75
44933;PMS3003;30667;43.614;1.442;2024-01-11T07:22:34;34.00;27.20;17.20
44933;PMS3003;30667;43.614;1.442;2024-01-11T07:24:59;29.50;25.25;15.75
44933;PMS3003;30667;43.614;1.442;2024-01-11T07:27:25;35.50;29.00;15.00
44933;PMS3003;30667;43.614;1.442;2024-01-11T07:29:50;32.25;28.25;18.00
44933;PMS3003;30667;43.614;1.442;2024-01-11T07:32:16;35.75;31.75;16.50
44933;PMS3003;30667;43.614;1.442;2024-01-11T07:34:41;29.50;24.75;15.00
44933;PMS3003;30667;43.614;1.442;2024-01-11T07:37:07;33.75;26.25;17.00
44933;PMS3003;30667;43.614;1.442;2024-01-11T07:39:33;32.20;30.20;18.80
44933;PMS3003;30667;43.614;1.442;2024-01-11T07:41:59;32.20;29.00;16.00
44933;PMS3003;30667;43.614;1.442;2024-01-11T07:44:24;36.75;31.00;17.00
44933;PMS3003;30667;43.614;1.442;2024-01-11T07:46:49;32.75;31.75;17.75
44933;PMS3003;30667;43.614;1.442;2024-01-11T07:49:40;37.20;30.40;17.40
44933;PMS3003;30667;43.614;1.442;2024-01-11T07:52:06;37.75;33.75;19.00
44933;PMS3003;30667;43.614;1.442;2024-01-11T07:54:31;27.25;27.25;15.50
44933;PMS3003;30667;43.614;1.442;2024-01-11T07:56:57;32.75;31.25;18.00
44933;PMS3003;30667;43.614;1.442;2024-01-11T07:59:22;30.50;29.00;17.50
44933;PMS3003;30667;43.614;1.442;2024-01-11T08:01:47;28.75;25.75;15.00
44933;PMS3003;30667;43.614;1.442;2024-01-11T08:04:13;33.50;26.50;16.00
44933;PMS3003;30667;43.614;1.442;2024-01-11T08:06:39;36.00;32.00;18.00
44933;PMS3003;30667;43.614;1.442;2024-01-11T08:09:04;34.25;31.75;17.50
44933;PMS3003;30667;43.614;1.442;2024-01-11T08:11:30;31.75;28.50;16.00
44933;PMS3003;30667;43.614;1.442;2024-01-11T08:13:56;34.40;31.80;17.80
44933;PMS3003;30667;43.614;1.442;2024-01-11T08:19:13;33.60;28.80;16.00
44933;PMS3003;30667;43.614;1.442;2024-01-11T08:21:39;38.75;33.50;18.00
44933;PMS3003;30667;43.614;1.442;2024-01-11T08:24:06;41.40;31.40;18.20
44933;PMS3003;30667;43.614;1.442;2024-01-11T08:26:36;33.25;28.25;16.25
44933;PMS3003;30667;43.614;1.442;2024-01-11T08:29:01;36.00;30.60;18.80
44933;PMS3003;30667;43.614;1.442;2024-01-11T08:31:27;32.00;29.75;18.00
44933;PMS3003;30667;43.614;1.442;2024-01-11T08:33:52;33.00;29.50;16.50
44933;PMS3003;30667;43.614;1.442;2024-01-11T08:36:19;32.80;30.60;19.00
44933;PMS3003;30667;43.614;1.442;2024-01-11T08:38:45;30.50;28.25;18.00
44933;PMS3003;30667;43.614;1.442;2024-01-11T08:41:10;31.00;28.50;16.00
44933;PMS3003;30667;43.614;1.442;2024-01-11T08:43:36;32.80;29.60;18.40
44933;PMS3003;30667;43.614;1.442;2024-01-11T08:46:02;35.00;30.75;16.00
44933;PMS3003;30667;43.614;1.442;2024-01-11T08:48:27;33.25;27.00;16.00
44933;PMS3003;30667;43.614;1.442;2024-01-11T08:50:53;34.60;28.20;15.60
44933;PMS3003;30667;43.614;1.442;2024-01-11T08:53:19;28.75;24.25;15.25
44933;PMS3003;30667;43.614;1.442;2024-01-11T08:55:44;27.00;25.25;16.25
44933;PMS3003;30667;43.614;1.442;2024-01-11T08:58:10;28.75;27.00;15.00
44933;PMS3003;30667;43.614;1.442;2024-01-11T09:00:36;26.25;24.00;15.00
44933;PMS3003;30667;43.614;1.442;2024-01-11T09:03:02;28.60;27.40;14.60
44933;PMS3003;30667;43.614;1.442;2024-01-11T09:05:28;32.60;26.80;16.20
44933;PMS3003;30667;43.614;1.442;2024-01-11T09:07:53;32.75;27.25;15.00
44933;PMS3003;30667;43.614;1.442;2024-01-11T09:10:19;27.50;22.25;13.50
44933;PMS3003;30667;43.614;1.442;2024-01-11T09:12:45;31.75;26.75;13.00
44933;PMS3003;30667;43.614;1.442;2024-01-11T09:15:10;28.80;24.20;14.60
44933;PMS3003;30667;43.614;1.442;2024-01-11T09:17:36;27.25;24.75;14.75
44933;PMS3003;30667;43.614;1.442;2024-01-11T09:20:02;30.40;26.00;14.80
44933;PMS3003;30667;43.614;1.442;2024-01-11T09:22:28;34.50;30.25;18.00
44933;PMS3003;30667;43.614;1.442;2024-01-11T09:24:54;38.00;29.50;16.00
44933;PMS3003;30667;43.614;1.442;2024-01-11T09:27:19;35.00;32.25;19.50
44933;PMS3003;30667;43.614;1.442;2024-01-11T09:29:45;32.75;29.00;18.00
44933;PMS3003;30667;43.614;1.442;2024-01-11T09:32:11;27.60;25.20;16.20
44933;PMS3003;30667;43.614;1.442;2024-01-11T09:34:37;37.40;30.60;16.80
44933;PMS3003;30667;43.614;1.442;2024-01-11T09:37:02;30.75;25.00;15.50
44933;PMS3003;30667;43.614;1.442;2024-01-11T09:39:28;30.00;26.80;16.40
44933;PMS3003;30667;43.614;1.442;2024-01-11T09:41:58;34.00;29.80;18.60
44933;PMS3003;30667;43.614;1.442;2024-01-11T09:44:34;35.20;29.20;16.20
44933;PMS3003;30667;43.614;1.442;2024-01-11T09:47:02;31.20;27.60;18.20
44933;PMS3003;30667;43.614;1.442;2024-01-11T09:49:31;36.40;27.60;17.20
44933;PMS3003;30667;43.614;1.442;2024-01-11T09:51:58;32.00;26.60;17.40
44933;PMS3003;30667;43.614;1.442;2024-01-11T09:54:26;40.80;32.40;18.60
44933;PMS3003;30667;43.614;1.442;2024-01-11T09:56:52;30.80;27.40;17.60
44933;PMS3003;30667;43.614;1.442;2024-01-11T09:59:19;34.60;27.00;17.60
44933;PMS3003;30667;43.614;1.442;2024-01-11T10:01:49;40.20;32.00;19.00
44933;PMS3003;30667;43.614;1.442;2024-01-11T10:04:15;33.20;27.40;17.00
44933;PMS3003;30667;43.614;1.442;2024-01-11T10:06:41;33.80;28.40;17.40
44933;PMS3003;30667;43.614;1.442;2024-01-11T10:09:07;34.25;28.00;15.00
44933;PMS3003;30667;43.614;1.442;2024-01-11T10:11:33;27.00;25.20;15.60
44933;PMS3003;30667;43.614;1.442;2024-01-11T10:13:59;29.80;26.60;14.80
44933;PMS3003;30667;43.614;1.442;2024-01-11T10:16:27;29.40;27.60;18.00
44933;PMS3003;30667;43.614;1.442;2024-01-11T10:18:54;33.60;25.00;15.40
44933;PMS3003;30667;43.614;1.442;2024-01-11T10:21:20;30.00;25.40;16.40
44933;PMS3003;30667;43.614;1.442;2024-01-11T10:23:46;29.80;28.00;16.40
44933;PMS3003;30667;43.614;1.442;2024-01-11T10:26:11;30.00;28.00;16.00
44933;PMS3003;30667;43.614;1.442;2024-01-11T10:28:37;33.50;31.25;16.75
44933;PMS3003;30667;43.614;1.442;2024-01-11T10:31:05;29.25;24.50;14.00
44933;PMS3003;30667;43.614;1.442;2024-01-11T10:33:34;31.40;27.60;16.20
44933;PMS3003;30667;43.614;1.442;2024-01-11T10:36:00;31.00;28.40;15.80
44933;PMS3003;30667;43.614;1.442;2024-01-11T10:38:26;32.25;25.50;16.00
44933;PMS3003;30667;43.614;1.442;2024-01-11T10:40:55;33.00;27.20;16.40
44933;PMS3003;30667;43.614;1.442;2024-01-11T10:43:25;33.00;30.00;16.60
44933;PMS3003;30667;43.614;1.442;2024-01-11T10:45:52;30.60;28.00;16.40
44933;PMS3003;30667;43.614;1.442;2024-01-11T10:48:24;33.00;27.00;18.20
44933;PMS3003;30667;43.614;1.442;2024-01-11T10:51:00;31.20;28.60;17.00
44933;PMS3003;30667;43.614;1.442;2024-01-11T10:56:12;28.20;25.60;14.80
44933;PMS3003;30667;43.614;1.442;2024-01-11T10:58:41;28.40;24.60;15.80
44933;PMS3003;30667;43.614;1.442;2024-01-11T11:01:08;30.20;28.00;17.00
44933;PMS3003;30667;43.614;1.442;2024-01-11T11:03:36;34.40;28.80;18.80
44933;PMS3003;30667;43.614;1.442;2024-01-11T11:06:02;32.80;28.00;16.80
44933;PMS3003;30667;43.614;1.442;2024-01-11T11:08:29;29.60;27.60;17.00
44933;PMS3003;30667;43.614;1.442;2024-01-11T11:10:55;36.25;28.25;17.25
44933;PMS3003;30667;43.614;1.442;2024-01-11T11:13:22;27.00;25.20;15.60
44933;PMS3003;30667;43.614;1.442;2024-01-11T11:15:48;32.00;27.60;17.00
44933;PMS3003;30667;43.614;1.442;2024-01-11T11:18:14;33.75;28.00;15.25
44933;PMS3003;30667;43.614;1.442;2024-01-11T11:20:41;30.60;26.80;14.40
44933;PMS3003;30667;43.614;1.442;2024-01-11T11:23:10;35.60;28.00;15.00
44933;PMS3003;30667;43.614;1.442;2024-01-11T11:25:37;30.40;25.20;14.20
44933;PMS3003;30667;43.614;1.442;2024-01-11T11:28:05;32.00;28.20;16.20
44933;PMS3003;30667;43.614;1.442;2024-01-11T11:30:38;41.75;27.25;14.00
44933;PMS3003;30667;43.614;1.442;2024-01-11T11:33:16;31.00;28.60;16.40
44933;PMS3003;30667;43.614;1.442;2024-01-11T11:35:49;31.60;25.40;16.00
44933;PMS3003;30667;43.614;1.442;2024-01-11T11:38:22;33.00;29.80;16.00
44933;PMS3003;30667;43.614;1.442;2024-01-11T11:41:13;31.40;26.00;15.60
44933;PMS3003;30667;43.614;1.442;2024-01-11T11:43:42;32.00;25.40;14.20
44933;PMS3003;30667;43.614;1.442;2024-01-11T11:46:08;32.40;25.20;14.00
44933;PMS3003;30667;43.614;1.442;2024-01-11T11:53:36;30.60;25.00;14.20
44933;PMS3003;30667;43.614;1.442;2024-01-11T11:56:02;31.20;26.00;15.60
44933;PMS3003;30667;43.614;1.442;2024-01-11T11:58:29;26.00;24.60;15.60
44933;PMS3003;30667;43.614;1.442;2024-01-11T12:00:55;33.40;26.20;14.20
44933;PMS3003;30667;43.614;1.442;2024-01-11T12:03:28;29.80;27.00;15.40
44933;PMS3003;30667;43.614;1.442;2024-01-11T12:05:56;30.20;24.40;13.20
44933;PMS3003;30667;43.614;1.442;2024-01-11T12:08:22;29.40;27.80;15.80
44933;PMS3003;30667;43.614;1.442;2024-01-11T12:10:48;36.75;32.25;19.75
44933;PMS3003;30667;43.614;1.442;2024-01-11T12:13:14;38.25;30.50;17.25
44933;PMS3003;30667;43.614;1.442;2024-01-11T12:15:40;36.00;33.25;18.75
44933;PMS3003;30667;43.614;1.442;2024-01-11T12:18:05;35.80;29.40;19.00
44933;PMS3003;30667;43.614;1.442;2024-01-11T12:20:32;34.20;31.60;19.60
44933;PMS3003;30667;43.614;1.442;2024-01-11T12:22:58;35.80;31.40;19.60
44933;PMS3003;30667;43.614;1.442;2024-01-11T12:25:23;30.25;29.50;19.25
44933;PMS3003;30667;43.614;1.442;2024-01-11T12:27:49;36.75;31.75;18.25
44933;PMS3003;30667;43.614;1.442;2024-01-11T12:30:16;33.25;29.75;17.00
44933;PMS3003;30667;43.614;1.442;2024-01-11T12:32:42;34.40;31.40;17.00
44933;PMS3003;30667;43.614;1.442;2024-01-11T12:35:09;36.40;32.60;18.40
44933;PMS3003;30667;43.614;1.442;2024-01-11T12:37:35;32.20;27.20;15.80
44933;PMS3003;30667;43.614;1.442;2024-01-11T12:40:00;36.75;27.25;17.00
44933;PMS3003;30667;43.614;1.442;2024-01-11T12:42:26;30.25;27.50;16.00
44933;PMS3003;30667;43.614;1.442;2024-01-11T12:44:52;31.60;25.60;15.80
44933;PMS3003;30667;43.614;1.442;2024-01-11T12:47:18;32.00;29.25;17.25
44933;PMS3003;30667;43.614;1.442;2024-01-11T12:49:44;31.00;28.40;16.60
44933;PMS3003;30667;43.614;1.442;2024-01-11T12:52:19;35.20;29.80;18.40
44933;PMS3003;30667;43.614;1.442;2024-01-11T12:54:44;35.40;30.00;17.20
44933;PMS3003;30667;43.614;1.442;2024-01-11T12:57:17;32.80;29.80;18.20
44933;PMS3003;30667;43.614;1.442;2024-01-11T12:59:44;34.00;28.20;16.80
44933;PMS3003;30667;43.614;1.442;2024-01-11T13:02:10;30.25;27.75;16.50
44933;PMS3003;30667;43.614;1.442;2024-01-11T13:04:38;37.60;33.20;18.00
44933;PMS3003;30667;43.614;1.442;2024-01-11T13:07:04;26.50;25.50;17.00
44933;PMS3003;30667;43.614;1.442;2024-01-11T13:09:30;26.50;23.50;14.25
44933;PMS3003;30667;43.614;1.442;2024-01-11T13:11:55;28.25;24.50;16.00
44933;PMS3003;30667;43.614;1.442;2024-01-11T13:14:20;26.25;25.50;13.25
44933;PMS3003;30667;43.614;1.442;2024-01-11T13:16:46;34.50;29.25;16.25
44933;PMS3003;30667;43.614;1.442;2024-01-11T13:19:13;32.80;29.40;15.60
44933;PMS3003;30667;43.614;1.442;2024-01-11T13:21:39;35.75;28.00;15.00
44933;PMS3003;30667;43.614;1.442;2024-01-11T13:24:06;28.50;25.75;15.00
44933;PMS3003;30667;43.614;1.442;2024-01-11T13:26:32;33.00;26.80;15.20
44933;PMS3003;30667;43.614;1.442;2024-01-11T13:28:58;29.00;26.60;16.60
44933;PMS3003;30667;43.614;1.442;2024-01-11T13:31:24;29.25;26.00;14.25
44933;PMS3003;30667;43.614;1.442;2024-01-11T13:33:50;28.75;25.25;13.25
44933;PMS3003;30667;43.614;1.442;2024-01-11T13:36:15;29.00;25.75;15.00
44933;PMS3003;30667;43.614;1.442;2024-01-11T13:38:41;35.50;27.75;16.25
44933;PMS3003;30667;43.614;1.442;2024-01-11T13:41:06;30.50;28.00;15.00
44933;PMS3003;30667;43.614;1.442;2024-01-11T13:43:33;25.80;23.40;12.80
44933;PMS3003;30667;43.614;1.442;2024-01-11T13:46:00;29.20;24.00;14.60
44933;PMS3003;30667;43.614;1.442;2024-01-11T13:48:25;33.00;25.20;16.80
44933;PMS3003;30667;43.614;1.442;2024-01-11T13:50:51;35.25;28.75;16.00
44933;PMS3003;30667;43.614;1.442;2024-01-11T13:53:16;28.75;25.50;15.75